createdAt,value
2023-05-11T00:02:06.093Z,6.61
2023-05-11T00:04:34.688Z,6.57
2023-05-11T00:07:03.096Z,6.55
2023-05-11T00:09:31.580Z,6.52
2023-05-11T00:11:59.864Z,6.50
2023-05-11T00:14:28.280Z,6.49
2023-05-11T00:16:56.585Z,6.46
2023-05-11T00:19:24.964Z,6.44
2023-05-11T00:21:53.296Z,6.46
2023-05-11T00:24:21.641Z,6.46
2023-05-11T00:26:50.013Z,6.45
2023-05-11T00:29:18.463Z,6.43
2023-05-11T00:31:48.298Z,6.38
2023-05-11T00:34:19.164Z,6.34
2023-05-11T00:36:47.684Z,6.34
2023-05-11T00:39:16.069Z,6.33
2023-05-11T00:41:44.943Z,6.31
2023-05-11T00:44:13.479Z,6.28
2023-05-11T00:46:42.686Z,6.24
2023-05-11T00:49:11.946Z,6.23
2023-05-11T00:51:40.320Z,6.19
2023-05-11T00:54:15.297Z,6.15
2023-05-11T00:56:43.684Z,6.10
2023-05-11T00:59:13.683Z,6.06
2023-05-11T01:01:42.146Z,6.03
2023-05-11T01:04:10.842Z,5.99
2023-05-11T01:06:48.208Z,5.96
2023-05-11T01:09:46.628Z,5.90
2023-05-11T01:12:44.205Z,5.86
2023-05-11T01:15:19.377Z,5.84
2023-05-11T01:18:33.796Z,5.81
2023-05-11T01:21:08.694Z,5.76
2023-05-11T01:23:58.581Z,5.74
2023-05-11T01:26:56.683Z,5.76
2023-05-11T01:29:43.874Z,5.73
2023-05-11T01:32:26.150Z,5.73
2023-05-11T01:35:26.713Z,5.73
2023-05-11T01:37:58.883Z,5.69
2023-05-11T01:40:31.022Z,5.67
2023-05-11T01:43:05.115Z,5.66
2023-05-11T01:45:39.368Z,5.64
2023-05-11T01:48:12.207Z,5.62
2023-05-11T01:50:42.191Z,5.62
2023-05-11T01:53:12.434Z,5.60
2023-05-11T01:55:42.742Z,5.54
2023-05-11T01:58:15.202Z,5.52
2023-05-11T02:00:45.617Z,5.48
2023-05-11T02:03:15.716Z,5.44
2023-05-11T02:05:47.206Z,5.40
2023-05-11T02:08:18.758Z,5.36
2023-05-11T02:10:48.651Z,5.32
2023-05-11T02:13:19.218Z,5.29
2023-05-11T02:15:52.366Z,5.27
2023-05-11T02:18:21.534Z,5.24
2023-05-11T02:21:00.339Z,5.23
2023-05-11T02:23:31.444Z,5.22
2023-05-11T02:26:01.431Z,5.20
2023-05-11T02:28:30.109Z,5.19
2023-05-11T02:31:05.592Z,5.14
2023-05-11T02:33:36.631Z,5.07
2023-05-11T02:36:06.954Z,5.00
2023-05-11T02:38:37.363Z,4.98
2023-05-11T02:41:12.129Z,4.97
2023-05-11T02:43:46.333Z,4.97
2023-05-11T02:46:17.332Z,4.98
2023-05-11T02:48:49.663Z,4.95
2023-05-11T02:51:22.432Z,4.94
2023-05-11T02:53:55.612Z,4.93
2023-05-11T02:56:25.126Z,4.91
2023-05-11T02:58:53.980Z,4.89
2023-05-11T03:01:27.949Z,4.88
2023-05-11T03:03:58.348Z,4.87
2023-05-11T03:06:27.616Z,4.86
2023-05-11T03:08:56.120Z,4.85
2023-05-11T03:11:27.908Z,4.85
2023-05-11T03:13:56.633Z,4.84
2023-05-11T03:16:25.254Z,4.83
2023-05-11T03:18:55.762Z,4.83
2023-05-11T03:21:27.019Z,4.82
2023-05-11T03:23:57.448Z,4.82
2023-05-11T03:26:28.781Z,4.84
2023-05-11T03:29:00.358Z,4.86
2023-05-11T03:31:29.342Z,4.92
2023-05-11T03:33:59.210Z,4.98
2023-05-11T03:36:28.385Z,5.01
2023-05-11T03:38:58.546Z,5.05
2023-05-11T03:41:32.361Z,5.12
2023-05-11T03:44:03.330Z,5.19
2023-05-11T03:46:33.267Z,5.25
2023-05-11T03:49:04.920Z,5.32
2023-05-11T03:51:35.535Z,5.41
2023-05-11T03:54:03.941Z,5.52
2023-05-11T03:56:35.526Z,5.62
2023-05-11T03:59:04.491Z,5.72
2023-05-11T04:01:33.136Z,5.82
2023-05-11T04:04:01.747Z,5.92
2023-05-11T04:06:30.243Z,6.01
2023-05-11T04:09:10.955Z,6.13
2023-05-11T04:11:39.690Z,6.24
2023-05-11T04:14:08.092Z,6.36
2023-05-11T04:16:36.466Z,6.46
2023-05-11T04:19:05.058Z,6.58
2023-05-11T04:21:33.421Z,6.68
2023-05-11T04:24:02.018Z,6.81
2023-05-11T04:26:30.509Z,6.94
2023-05-11T04:28:58.895Z,7.07
2023-05-11T04:31:27.341Z,7.18
2023-05-11T04:33:55.868Z,7.29
2023-05-11T04:36:24.322Z,7.40
2023-05-11T04:38:53.448Z,7.52
2023-05-11T04:41:22.537Z,7.62
2023-05-11T04:43:51.610Z,7.76
2023-05-11T04:46:20.006Z,7.89
2023-05-11T04:48:48.531Z,8.00
2023-05-11T04:51:17.526Z,8.13
2023-05-11T04:53:46.630Z,8.25
2023-05-11T04:56:14.967Z,8.40
2023-05-11T04:58:43.669Z,8.56
2023-05-11T05:01:12.163Z,8.73
2023-05-11T05:03:41.366Z,8.92
2023-05-11T05:06:10.110Z,9.13
2023-05-11T05:08:38.551Z,9.32
2023-05-11T05:11:07.364Z,9.52
2023-05-11T05:13:35.814Z,9.70
2023-05-11T05:16:04.317Z,9.90
2023-05-11T05:18:32.759Z,10.11
2023-05-11T05:21:01.570Z,10.26
2023-05-11T05:23:30.744Z,10.46
2023-05-11T05:25:59.226Z,10.62
2023-05-11T05:28:27.902Z,10.82
2023-05-11T05:30:56.411Z,11.01
2023-05-11T05:33:25.100Z,11.17
2023-05-11T05:35:53.556Z,11.36
2023-05-11T05:38:22.031Z,11.51
2023-05-11T05:40:50.519Z,11.58
2023-05-11T05:43:19.438Z,11.72
2023-05-11T05:45:48.128Z,11.87
2023-05-11T05:48:16.544Z,12.02
2023-05-11T05:50:44.956Z,12.25
2023-05-11T05:53:13.630Z,12.43
2023-05-11T05:55:42.031Z,12.59
2023-05-11T05:58:11.037Z,12.77
2023-05-11T06:00:39.549Z,13.02
2023-05-11T06:03:08.537Z,13.20
2023-05-11T06:05:38.417Z,13.37
2023-05-11T06:08:11.174Z,13.51
2023-05-11T06:10:40.545Z,13.63
2023-05-11T06:13:12.996Z,13.65
2023-05-11T06:15:43.724Z,13.57
2023-05-11T06:18:32.742Z,13.58
2023-05-11T06:21:02.056Z,13.67
2023-05-11T06:23:32.042Z,13.73
2023-05-11T06:26:00.664Z,13.79
2023-05-11T06:28:30.221Z,13.83
2023-05-11T06:31:01.208Z,13.87
2023-05-11T06:33:31.656Z,13.81
2023-05-11T06:36:05.154Z,13.75
2023-05-11T06:38:33.960Z,13.75
2023-05-11T06:41:02.436Z,13.72
2023-05-11T06:43:30.726Z,13.79
2023-05-11T06:46:03.521Z,13.79
2023-05-11T06:48:32.119Z,13.89
2023-05-11T06:51:01.291Z,13.95
2023-05-11T06:53:29.700Z,14.06
2023-05-11T06:55:59.485Z,14.26
2023-05-11T06:58:27.821Z,14.42
2023-05-11T07:00:56.742Z,14.49
2023-05-11T07:03:25.135Z,14.66
2023-05-11T07:05:53.531Z,14.92
2023-05-11T07:08:21.822Z,14.91
2023-05-11T07:10:50.210Z,14.93
2023-05-11T07:13:18.543Z,14.97
2023-05-11T07:15:46.877Z,15.18
2023-05-11T07:18:16.123Z,15.10
2023-05-11T07:20:46.983Z,15.07
2023-05-11T07:23:15.302Z,15.31
2023-05-11T07:25:43.947Z,15.50
2023-05-11T07:28:12.608Z,15.62
2023-05-11T07:30:41.412Z,15.69
2023-05-11T07:33:10.155Z,15.62
2023-05-11T07:35:40.770Z,15.77
2023-05-11T07:38:11.932Z,15.81
2023-05-11T07:40:40.396Z,15.79
2023-05-11T07:43:08.858Z,15.85
2023-05-11T07:45:37.322Z,15.94
2023-05-11T07:48:05.805Z,16.16
2023-05-11T07:50:34.193Z,16.28
2023-05-11T07:53:02.544Z,16.51
2023-05-11T07:55:31.004Z,16.67
2023-05-11T07:57:59.361Z,16.81
2023-05-11T08:00:27.744Z,16.84
2023-05-11T08:02:56.859Z,16.81
2023-05-11T08:05:25.462Z,16.76
2023-05-11T08:07:54.061Z,16.75
2023-05-11T08:10:22.439Z,16.83
2023-05-11T08:12:50.816Z,16.90
2023-05-11T08:15:19.391Z,17.07
2023-05-11T08:17:47.947Z,17.04
2023-05-11T08:20:16.405Z,17.09
2023-05-11T08:22:45.578Z,17.02
2023-05-11T08:25:14.014Z,16.94
2023-05-11T08:27:42.361Z,16.88
2023-05-11T08:30:11.874Z,16.94
2023-05-11T08:35:11.752Z,17.41
2023-05-11T08:37:40.344Z,17.55
2023-05-11T08:40:13.229Z,17.65
2023-05-11T08:42:45.919Z,17.70
2023-05-11T08:45:15.640Z,17.85
2023-05-11T08:47:45.523Z,18.06
2023-05-11T08:50:14.320Z,18.36
2023-05-11T08:52:43.112Z,18.63
2023-05-11T08:55:11.736Z,18.71
2023-05-11T08:57:42.865Z,19.03
2023-05-11T09:00:12.563Z,19.34
2023-05-11T09:02:41.839Z,19.32
2023-05-11T09:05:10.928Z,19.28
2023-05-11T09:07:42.154Z,19.23
2023-05-11T09:10:13.559Z,19.20
2023-05-11T09:12:42.299Z,19.05
2023-05-11T09:15:11.464Z,18.96
2023-05-11T09:17:42.147Z,18.73
2023-05-11T09:20:11.324Z,18.43
2023-05-11T09:22:47.317Z,18.06
2023-05-11T09:25:17.788Z,17.97
2023-05-11T09:27:47.632Z,17.92
2023-05-11T09:30:23.317Z,17.62
2023-05-11T09:33:00.488Z,17.82
2023-05-11T09:35:31.547Z,17.81
2023-05-11T09:38:09.529Z,18.00
2023-05-11T09:40:40.148Z,17.95
2023-05-11T09:43:23.802Z,18.04
2023-05-11T09:45:55.370Z,17.72
2023-05-11T09:48:30.319Z,17.41
2023-05-11T09:51:01.874Z,17.08
2023-05-11T09:53:39.807Z,16.85
2023-05-11T09:56:08.656Z,17.00
2023-05-11T09:58:47.184Z,17.46
2023-05-11T10:01:17.606Z,17.69
2023-05-11T10:03:51.080Z,17.52
2023-05-11T10:06:20.533Z,17.31
2023-05-11T10:08:49.400Z,17.09
2023-05-11T10:11:18.240Z,16.94
2023-05-11T10:13:46.594Z,17.16
2023-05-11T10:16:16.929Z,17.54
2023-05-11T10:18:46.145Z,17.97
2023-05-11T10:21:15.767Z,18.24
2023-05-11T10:23:44.395Z,18.38
2023-05-11T10:26:14.665Z,18.51
2023-05-11T10:28:43.749Z,18.72
2023-05-11T10:31:13.207Z,18.93
2023-05-11T10:33:42.128Z,19.01
2023-05-11T10:36:11.653Z,19.12
2023-05-11T10:38:40.048Z,19.00
2023-05-11T10:41:38.407Z,19.09
2023-05-11T10:44:28.581Z,19.31
2023-05-11T10:47:22.274Z,18.92
2023-05-11T10:50:21.730Z,18.60
2023-05-11T10:53:02.489Z,19.05
2023-05-11T10:55:39.921Z,19.26
2023-05-11T10:58:19.640Z,19.51
2023-05-11T11:00:51.320Z,19.71
2023-05-11T11:03:19.718Z,19.79
2023-05-11T11:05:48.384Z,20.00
2023-05-11T11:08:16.931Z,20.04
2023-05-11T11:10:50.329Z,19.85
2023-05-11T11:13:20.265Z,19.84
2023-05-11T11:15:54.779Z,19.83
2023-05-11T11:18:28.275Z,19.99
2023-05-11T11:20:58.716Z,19.89
2023-05-11T11:23:42.191Z,19.67
2023-05-11T11:26:15.844Z,19.22
2023-05-11T11:29:02.482Z,18.68
2023-05-11T11:31:33.158Z,18.22
2023-05-11T11:34:32.387Z,17.91
2023-05-11T11:37:03.559Z,17.67
2023-05-11T11:39:44.277Z,17.66
2023-05-11T11:42:40.029Z,17.55
2023-05-11T11:45:27.707Z,17.36
2023-05-11T11:48:13.621Z,17.32
2023-05-11T11:50:44.012Z,17.19
2023-05-11T11:53:46.216Z,17.28
2023-05-11T11:56:14.489Z,17.31
2023-05-11T11:58:43.295Z,17.27
2023-05-11T12:01:15.633Z,17.24
2023-05-11T12:03:47.162Z,17.26
2023-05-11T12:06:21.132Z,17.30
2023-05-11T12:08:49.475Z,17.24
2023-05-11T12:11:18.174Z,17.26
2023-05-11T12:13:46.968Z,17.18
2023-05-11T12:16:17.567Z,17.26
2023-05-11T12:18:52.948Z,17.28
2023-05-11T12:21:23.484Z,17.20
2023-05-11T12:23:53.020Z,17.35
2023-05-11T12:26:22.779Z,17.64
2023-05-11T12:28:52.530Z,17.69
2023-05-11T12:31:21.281Z,17.79
2023-05-11T12:33:51.333Z,18.06
2023-05-11T12:36:20.452Z,18.04
2023-05-11T12:38:49.356Z,18.06
2023-05-11T12:41:24.961Z,17.92
2023-05-11T12:43:55.237Z,17.77
2023-05-11T12:46:24.064Z,17.72
2023-05-11T12:48:53.134Z,17.63
2023-05-11T12:51:49.541Z,17.60
2023-05-11T12:54:27.907Z,17.54
2023-05-11T12:56:56.533Z,17.55
2023-05-11T12:59:34.149Z,17.49
2023-05-11T13:02:12.800Z,17.43
2023-05-11T13:04:42.531Z,17.37
2023-05-11T13:07:11.853Z,17.35
2023-05-11T13:09:41.048Z,17.29
2023-05-11T13:12:14.273Z,17.24
2023-05-11T13:14:42.564Z,17.21
2023-05-11T13:17:11.243Z,17.21
2023-05-11T13:19:39.863Z,17.21
2023-05-11T13:22:12.124Z,17.16
2023-05-11T13:24:40.697Z,17.09
2023-05-11T13:27:09.089Z,16.96
2023-05-11T13:29:40.229Z,16.89
2023-05-11T13:32:08.606Z,16.96
2023-05-11T13:34:37.451Z,16.91
2023-05-11T13:37:05.802Z,16.95
2023-05-11T13:39:34.103Z,16.95
2023-05-11T13:42:02.427Z,16.89
2023-05-11T13:44:30.800Z,16.85
2023-05-11T13:46:59.152Z,16.91
2023-05-11T13:49:27.759Z,17.22
2023-05-11T13:51:56.418Z,17.43
2023-05-11T13:54:25.011Z,17.42
2023-05-11T13:56:53.462Z,17.33
2023-05-11T13:59:21.827Z,17.22
2023-05-11T14:01:50.321Z,17.05
2023-05-11T14:04:19.839Z,17.00
2023-05-11T14:06:48.213Z,16.98
2023-05-11T14:09:16.882Z,17.03
2023-05-11T14:11:45.187Z,17.13
2023-05-11T14:14:14.218Z,17.34
2023-05-11T14:16:42.952Z,17.51
2023-05-11T14:19:11.582Z,17.55
2023-05-11T14:21:40.068Z,17.72
2023-05-11T14:24:14.090Z,17.67
2023-05-11T14:26:42.931Z,17.64
2023-05-11T14:29:11.222Z,17.67
2023-05-11T14:31:40.142Z,17.65
2023-05-11T14:34:08.526Z,17.73
2023-05-11T14:36:37.083Z,17.80
2023-05-11T14:39:05.550Z,17.80
2023-05-11T14:41:34.013Z,17.75
2023-05-11T14:44:02.311Z,17.61
2023-05-11T14:46:30.699Z,17.43
2023-05-11T14:48:59.119Z,17.40
2023-05-11T14:51:27.538Z,17.30
2023-05-11T14:53:55.982Z,17.24
2023-05-11T14:56:24.374Z,17.21
2023-05-11T14:58:52.756Z,17.05
2023-05-11T15:01:21.125Z,16.89
2023-05-11T15:03:49.394Z,16.75
2023-05-11T15:06:21.616Z,16.63
2023-05-11T15:08:50.765Z,16.48
2023-05-11T15:11:19.132Z,16.35
2023-05-11T15:13:50.516Z,16.24
2023-05-11T15:16:18.881Z,16.23
2023-05-11T15:18:47.236Z,16.22
2023-05-11T15:21:15.629Z,16.25
2023-05-11T15:23:44.103Z,16.41
2023-05-11T15:26:14.569Z,16.51
2023-05-11T15:28:42.863Z,16.61
2023-05-11T15:31:11.362Z,16.67
2023-05-11T15:33:40.063Z,16.66
2023-05-11T15:36:13.354Z,16.58
2023-05-11T15:38:43.457Z,16.42
2023-05-11T15:41:11.743Z,16.24
2023-05-11T15:43:40.119Z,16.11
2023-05-11T15:46:08.490Z,16.02
2023-05-11T15:48:36.887Z,15.95
2023-05-11T15:51:05.343Z,15.85
2023-05-11T15:53:33.646Z,15.81
2023-05-11T15:56:03.865Z,15.75
2023-05-11T15:58:32.265Z,15.71
2023-05-11T16:01:01.140Z,15.70
2023-05-11T16:03:29.712Z,15.69
2023-05-11T16:05:58.238Z,15.61
2023-05-11T16:08:26.584Z,15.57
2023-05-11T16:10:54.887Z,15.49
2023-05-11T16:13:23.355Z,15.40
2023-05-11T16:15:52.484Z,15.39
2023-05-11T16:18:20.888Z,15.37
2023-05-11T16:20:49.342Z,15.33
2023-05-11T16:23:17.755Z,15.28
2023-05-11T16:25:47.777Z,15.25
2023-05-11T16:28:16.230Z,15.19
2023-05-11T16:30:44.604Z,15.18
2023-05-11T16:33:12.928Z,15.16
2023-05-11T16:35:41.336Z,15.10
2023-05-11T16:38:22.720Z,15.04
2023-05-11T16:40:51.183Z,15.01
2023-05-11T16:43:19.627Z,15.00
2023-05-11T16:45:48.299Z,14.98
2023-05-11T16:48:16.600Z,14.95
2023-05-11T16:50:45.119Z,14.94
2023-05-11T16:53:14.101Z,14.91
2023-05-11T16:55:42.430Z,14.86
2023-05-11T16:58:10.784Z,14.81
2023-05-11T17:00:39.124Z,14.78
2023-05-11T17:03:07.560Z,14.74
2023-05-11T17:05:36.024Z,14.68
2023-05-11T17:08:04.465Z,14.62
2023-05-11T17:10:32.931Z,14.59
2023-05-11T17:13:01.765Z,14.51
2023-05-11T17:15:30.213Z,14.45
2023-05-11T17:17:58.665Z,14.42
2023-05-11T17:20:26.992Z,14.37
2023-05-11T17:22:55.978Z,14.32
2023-05-11T17:25:24.569Z,14.26
2023-05-11T17:27:53.003Z,14.21
2023-05-11T17:30:23.798Z,14.15
2023-05-11T17:32:56.222Z,14.06
2023-05-11T17:35:24.890Z,14.03
2023-05-11T17:37:53.640Z,13.96
2023-05-11T17:40:22.023Z,13.90
2023-05-11T17:42:50.477Z,13.85
2023-05-11T17:45:19.054Z,13.78
2023-05-11T17:47:50.222Z,13.73
2023-05-11T17:50:18.896Z,13.71
2023-05-11T17:52:50.147Z,13.65
2023-05-11T17:55:19.638Z,13.60
2023-05-11T17:57:51.808Z,13.56
2023-05-11T18:00:20.838Z,13.50
2023-05-11T18:02:49.722Z,13.47
2023-05-11T18:05:18.538Z,13.42
2023-05-11T18:07:46.804Z,13.37
2023-05-11T18:10:15.548Z,13.30
2023-05-11T18:12:43.894Z,13.24
2023-05-11T18:15:15.153Z,13.22
2023-05-11T18:17:43.554Z,13.17
2023-05-11T18:20:12.338Z,13.12
2023-05-11T18:22:40.852Z,13.10
2023-05-11T18:25:09.619Z,13.07
2023-05-11T18:27:38.167Z,13.02
2023-05-11T18:30:07.167Z,12.97
2023-05-11T18:32:35.581Z,12.92
2023-05-11T18:35:04.151Z,12.89
2023-05-11T18:37:34.197Z,12.86
2023-05-11T18:40:07.236Z,12.83
2023-05-11T18:42:35.644Z,12.77
2023-05-11T18:45:04.199Z,12.71
2023-05-11T18:47:35.985Z,12.66
2023-05-11T18:50:04.672Z,12.62
2023-05-11T18:52:33.129Z,12.55
2023-05-11T18:55:01.460Z,12.51
2023-05-11T18:57:30.584Z,12.46
2023-05-11T18:59:58.930Z,12.42
2023-05-11T19:02:27.377Z,12.37
2023-05-11T19:04:55.780Z,12.33
2023-05-11T19:07:24.126Z,12.29
2023-05-11T19:09:52.475Z,12.24
2023-05-11T19:12:20.945Z,12.16
2023-05-11T19:14:49.329Z,12.09
2023-05-11T19:17:17.612Z,12.05
2023-05-11T19:19:45.940Z,12.00
2023-05-11T19:22:14.340Z,11.96
2023-05-11T19:24:42.711Z,11.89
2023-05-11T19:27:11.009Z,11.85
2023-05-11T19:29:39.365Z,11.80
2023-05-11T19:32:07.925Z,11.78
2023-05-11T19:34:36.602Z,11.75
2023-05-11T19:37:05.020Z,11.72
2023-05-11T19:39:33.372Z,11.70
2023-05-11T19:42:02.003Z,11.66
2023-05-11T19:44:33.319Z,11.61
2023-05-11T19:47:01.597Z,11.57
2023-05-11T19:49:30.156Z,11.55
2023-05-11T19:51:59.145Z,11.52
2023-05-11T19:54:27.650Z,11.49
2023-05-11T19:56:57.679Z,11.44
2023-05-11T19:59:33.068Z,11.39
2023-05-11T20:02:03.122Z,11.36
2023-05-11T20:04:31.524Z,11.32
2023-05-11T20:06:59.842Z,11.29
2023-05-11T20:09:28.272Z,11.27
2023-05-11T20:11:56.632Z,11.22
2023-05-11T20:14:25.013Z,11.18
2023-05-11T20:16:53.399Z,11.13
2023-05-11T20:19:24.886Z,11.08
2023-05-11T20:21:53.333Z,11.05
2023-05-11T20:24:21.722Z,11.02
2023-05-11T20:26:50.149Z,10.99
2023-05-11T20:29:18.461Z,10.98
2023-05-11T20:31:46.818Z,10.95
2023-05-11T20:34:15.592Z,10.91
2023-05-11T20:36:44.074Z,10.89
2023-05-11T20:39:13.786Z,10.86
2023-05-11T20:41:42.082Z,10.83
2023-05-11T20:44:13.900Z,10.80
2023-05-11T20:46:42.281Z,10.77
2023-05-11T20:49:20.060Z,10.72
2023-05-11T20:51:54.064Z,10.70
2023-05-11T20:54:23.510Z,10.68
2023-05-11T20:56:51.840Z,10.64
2023-05-11T21:01:51.547Z,10.54
2023-05-11T21:04:19.925Z,10.50
2023-05-11T21:06:48.332Z,10.45
2023-05-11T21:09:17.112Z,10.38
2023-05-11T21:11:45.461Z,10.27
2023-05-11T21:14:14.040Z,10.19
2023-05-11T21:16:42.431Z,10.14
2023-05-11T21:19:10.882Z,10.10
2023-05-11T21:21:39.265Z,10.06
2023-05-11T21:24:07.673Z,10.03
2023-05-11T21:26:36.156Z,9.98
2023-05-11T21:29:04.597Z,9.93
2023-05-11T21:31:33.034Z,9.90
2023-05-11T21:34:01.333Z,9.85
2023-05-11T21:36:29.601Z,9.81
2023-05-11T21:38:58.402Z,9.79
2023-05-11T21:41:27.153Z,9.74
2023-05-11T21:43:55.436Z,9.69
2023-05-11T21:46:23.847Z,9.64
2023-05-11T21:48:52.202Z,9.59
2023-05-11T21:51:20.497Z,9.57
2023-05-11T21:53:48.930Z,9.54
2023-05-11T21:56:17.252Z,9.51
2023-05-11T21:58:45.573Z,9.50
2023-05-11T22:01:14.071Z,9.48
2023-05-11T22:03:42.525Z,9.45
2023-05-11T22:06:11.120Z,9.43
2023-05-11T22:08:39.418Z,9.44
2023-05-11T22:11:08.059Z,9.43
2023-05-11T22:13:36.460Z,9.42
2023-05-11T22:16:05.391Z,9.41
2023-05-11T22:18:33.776Z,9.40
2023-05-11T22:21:02.888Z,9.39
2023-05-11T22:23:32.018Z,9.38
2023-05-11T22:26:00.391Z,9.35
2023-05-11T22:28:28.687Z,9.36
2023-05-11T22:31:00.784Z,9.36
2023-05-11T22:33:29.107Z,9.39
2023-05-11T22:35:57.610Z,9.38
2023-05-11T22:38:26.311Z,9.38
2023-05-11T22:40:54.606Z,9.40
2023-05-11T22:43:22.972Z,9.39
2023-05-11T22:45:51.347Z,9.39
2023-05-11T22:48:19.777Z,9.38
2023-05-11T22:50:48.097Z,9.39
2023-05-11T22:53:16.644Z,9.40
2023-05-11T22:55:44.994Z,9.39
2023-05-11T22:58:13.512Z,9.36
2023-05-11T23:00:41.905Z,9.36
2023-05-11T23:03:10.309Z,9.34
2023-05-11T23:05:38.798Z,9.33
2023-05-11T23:08:07.248Z,9.33
2023-05-11T23:10:35.628Z,9.30
2023-05-11T23:13:05.017Z,9.27
2023-05-11T23:15:33.278Z,9.21
2023-05-11T23:18:01.643Z,9.16
2023-05-11T23:20:30.012Z,9.11
2023-05-11T23:22:58.446Z,9.09
2023-05-11T23:25:27.131Z,9.07
2023-05-11T23:27:55.658Z,9.04
2023-05-11T23:30:23.965Z,9.03
2023-05-11T23:32:52.380Z,8.98
2023-05-11T23:35:20.684Z,8.94
2023-05-11T23:37:49.207Z,8.91
2023-05-11T23:40:18.853Z,8.88
2023-05-11T23:42:47.576Z,8.85
2023-05-11T23:45:16.392Z,8.82
2023-05-11T23:47:44.835Z,8.79
2023-05-11T23:50:13.556Z,8.78
2023-05-11T23:52:41.867Z,8.78
2023-05-11T23:55:10.684Z,8.78
2023-05-11T23:57:39.015Z,8.76
